createdAt,value
2018-03-16T00:00:07.947Z,1003.76
2018-03-16T00:01:16.773Z,1003.82
2018-03-16T00:02:25.604Z,1003.83
2018-03-16T00:03:34.432Z,1003.85
2018-03-16T00:04:43.542Z,1003.9
2018-03-16T00:05:52.371Z,1003.91
2018-03-16T00:07:01.200Z,1003.91
2018-03-16T00:08:10.028Z,1003.9
2018-03-16T00:09:18.858Z,1003.96
2018-03-16T00:10:27.685Z,1003.91
2018-03-16T00:11:36.616Z,1003.94
2018-03-16T00:12:45.444Z,1003.93
2018-03-16T00:13:54.277Z,1003.83
2018-03-16T00:15:03.102Z,1003.92
2018-03-16T00:16:11.930Z,1003.9
2018-03-16T00:17:20.908Z,1003.94
2018-03-16T00:18:29.736Z,1003.93
2018-03-16T00:19:38.561Z,1003.9
2018-03-16T00:20:47.390Z,1003.98
2018-03-16T00:21:56.218Z,1003.99
2018-03-16T00:23:05.475Z,1003.89
2018-03-16T00:24:14.305Z,1003.98
2018-03-16T00:25:23.133Z,1003.94
2018-03-16T00:26:31.963Z,1003.99
2018-03-16T00:27:40.793Z,1004.03
2018-03-16T00:28:49.766Z,1004.03
2018-03-16T00:29:58.601Z,1004.06
2018-03-16T00:31:07.425Z,1003.99
2018-03-16T00:32:16.254Z,1004.1
2018-03-16T00:33:25.080Z,1004.08
2018-03-16T00:34:34.066Z,1004.14
2018-03-16T00:35:42.896Z,1004.1
2018-03-16T00:36:51.726Z,1004.12
2018-03-16T00:38:00.554Z,1004.17
2018-03-16T00:39:09.387Z,1004.1
2018-03-16T00:40:18.516Z,1004.14
2018-03-16T00:41:27.342Z,1004.07
2018-03-16T00:42:36.170Z,1004.13
2018-03-16T00:43:45.000Z,1004.07
2018-03-16T00:44:53.827Z,1004.1
2018-03-16T00:46:02.758Z,1004.11
2018-03-16T00:47:11.589Z,1004.09
2018-03-16T00:48:20.695Z,1004.1
2018-03-16T00:49:29.526Z,1004.09
2018-03-16T00:50:38.354Z,1004.11
2018-03-16T00:51:47.757Z,1004.11
2018-03-16T00:52:56.587Z,1004.13
2018-03-16T00:54:05.415Z,1004.09
2018-03-16T00:55:14.242Z,1004.19
2018-03-16T00:56:23.070Z,1004.14
2018-03-16T00:57:31.897Z,1004.14
2018-03-16T00:58:40.726Z,1004.23
2018-03-16T00:59:49.555Z,1004.13
2018-03-16T01:00:58.386Z,1004.06
2018-03-16T01:02:07.208Z,1004.11
2018-03-16T01:03:16.290Z,1004.12
2018-03-16T01:04:25.118Z,1004.13
2018-03-16T01:05:34.222Z,1004.08
2018-03-16T01:06:43.056Z,1004.08
2018-03-16T01:07:51.889Z,1004.09
2018-03-16T01:09:00.866Z,1004.13
2018-03-16T01:10:09.697Z,1004.11
2018-03-16T01:11:18.525Z,1004.12
2018-03-16T01:12:27.629Z,1004.16
2018-03-16T01:13:36.457Z,1004.09
2018-03-16T01:14:45.337Z,1004.05
2018-03-16T01:15:54.164Z,1004.06
2018-03-16T01:17:02.995Z,1004.07
2018-03-16T01:18:11.827Z,1004.12
2018-03-16T01:19:20.653Z,1004.14
2018-03-16T01:20:29.530Z,1004.17
2018-03-16T01:21:38.364Z,1004.16
2018-03-16T01:22:47.194Z,1004.14
2018-03-16T01:23:56.022Z,1004.15
2018-03-16T01:25:04.851Z,1004.15
2018-03-16T01:26:13.878Z,1004.13
2018-03-16T01:27:22.705Z,1004.17
2018-03-16T01:28:31.808Z,1004.11
2018-03-16T01:29:40.636Z,1004.1
2018-03-16T01:30:49.468Z,1004.17
2018-03-16T01:31:58.398Z,1004.16
2018-03-16T01:33:07.228Z,1004.13
2018-03-16T01:34:16.055Z,1004.16
2018-03-16T01:35:24.884Z,1004.12
2018-03-16T01:36:33.712Z,1004.16
2018-03-16T01:37:42.817Z,1004.12
2018-03-16T01:38:52.198Z,1004.2
2018-03-16T01:40:01.025Z,1004.17
2018-03-16T01:41:09.857Z,1004.17
2018-03-16T01:42:18.685Z,1004.21
2018-03-16T01:43:27.765Z,1004.24
2018-03-16T01:44:36.591Z,1004.23
2018-03-16T01:45:45.420Z,1004.19
2018-03-16T01:46:54.252Z,1004.18
2018-03-16T01:48:03.367Z,1004.22
2018-03-16T01:49:12.497Z,1004.2
2018-03-16T01:50:21.323Z,1004.25
2018-03-16T01:51:30.152Z,1004.21
2018-03-16T01:52:38.981Z,1004.17
2018-03-16T01:53:47.811Z,1004.17
2018-03-16T01:54:56.921Z,1004.2
2018-03-16T01:56:05.757Z,1004.2
2018-03-16T01:57:14.578Z,1004.19
2018-03-16T01:58:23.405Z,1004.25
2018-03-16T01:59:32.238Z,1004.2
2018-03-16T02:00:41.067Z,1004.18
2018-03-16T02:01:50.171Z,1004.19
2018-03-16T02:02:59.272Z,1004.2
2018-03-16T02:04:08.103Z,1004.27
2018-03-16T02:05:16.936Z,1004.21
2018-03-16T02:06:26.066Z,1004.2
2018-03-16T02:07:35.172Z,1004.17
2018-03-16T02:08:43.998Z,1004.22
2018-03-16T02:09:52.826Z,1004.17
2018-03-16T02:11:01.929Z,1004.29
2018-03-16T02:12:11.187Z,1004.27
2018-03-16T02:13:20.014Z,1004.35
2018-03-16T02:14:28.842Z,1004.32
2018-03-16T02:15:37.671Z,1004.32
2018-03-16T02:16:46.498Z,1004.24
2018-03-16T02:17:55.327Z,1004.25
2018-03-16T02:19:04.156Z,1004.32
2018-03-16T02:20:12.981Z,1004.31
2018-03-16T02:21:21.811Z,1004.23
2018-03-16T02:22:30.640Z,1004.29
2018-03-16T02:23:39.894Z,1004.3
2018-03-16T02:24:48.998Z,1004.31
2018-03-16T02:25:57.827Z,1004.26
2018-03-16T02:27:06.932Z,1004.35
2018-03-16T02:28:16.035Z,1004.41
2018-03-16T02:29:25.270Z,1004.37
2018-03-16T02:30:34.384Z,1004.35
2018-03-16T02:31:43.210Z,1004.4
2018-03-16T02:32:52.038Z,1004.37
2018-03-16T02:34:00.867Z,1004.4
2018-03-16T02:35:09.978Z,1004.41
2018-03-16T02:36:18.824Z,1004.43
2018-03-16T02:37:27.925Z,1004.42
2018-03-16T02:38:36.756Z,1004.37
2018-03-16T02:39:45.586Z,1004.36
2018-03-16T02:40:54.415Z,1004.4
2018-03-16T02:42:03.245Z,1004.38
2018-03-16T02:43:12.071Z,1004.45
2018-03-16T02:44:21.172Z,1004.45
2018-03-16T02:45:30.001Z,1004.45
2018-03-16T02:46:38.876Z,1004.39
2018-03-16T02:47:47.986Z,1004.51
2018-03-16T02:48:57.102Z,1004.47
2018-03-16T02:50:05.928Z,1004.46
2018-03-16T02:51:14.760Z,1004.5
2018-03-16T02:52:23.738Z,1004.45
2018-03-16T02:53:32.564Z,1004.53
2018-03-16T02:54:41.395Z,1004.55
2018-03-16T02:55:50.505Z,1004.52
2018-03-16T02:56:59.336Z,1004.52
2018-03-16T02:58:08.313Z,1004.54
2018-03-16T02:59:17.141Z,1004.49
2018-03-16T03:00:25.970Z,1004.51
2018-03-16T03:01:34.800Z,1004.56
2018-03-16T03:02:43.629Z,1004.52
2018-03-16T03:03:52.561Z,1004.56
2018-03-16T03:05:01.387Z,1004.58
2018-03-16T03:06:10.216Z,1004.64
2018-03-16T03:07:19.046Z,1004.62
2018-03-16T03:08:27.874Z,1004.57
2018-03-16T03:09:36.803Z,1004.59
2018-03-16T03:10:45.632Z,1004.58
2018-03-16T03:11:54.459Z,1004.58
2018-03-16T03:13:03.289Z,1004.6
2018-03-16T03:14:12.399Z,1004.65
2018-03-16T03:15:21.528Z,1004.62
2018-03-16T03:16:30.357Z,1004.68
2018-03-16T03:17:39.189Z,1004.69
2018-03-16T03:18:48.294Z,1004.62
2018-03-16T03:19:57.119Z,1004.67
2018-03-16T03:21:05.946Z,1004.7
2018-03-16T03:22:14.776Z,1004.68
2018-03-16T03:23:23.651Z,1004.72
2018-03-16T03:24:32.478Z,1004.73
2018-03-16T03:25:41.304Z,1004.72
2018-03-16T03:26:50.332Z,1004.76
2018-03-16T03:27:59.159Z,1004.77
2018-03-16T03:29:07.986Z,1004.73
2018-03-16T03:30:16.819Z,1004.7
2018-03-16T03:31:25.647Z,1004.77
2018-03-16T03:32:34.527Z,1004.81
2018-03-16T03:33:43.354Z,1004.76
2018-03-16T03:34:52.181Z,1004.78
2018-03-16T03:36:01.009Z,1004.77
2018-03-16T03:37:10.112Z,1004.76
2018-03-16T03:38:19.515Z,1004.78
2018-03-16T03:39:28.346Z,1004.74
2018-03-16T03:40:37.173Z,1004.74
2018-03-16T03:41:46.002Z,1004.74
2018-03-16T03:42:54.832Z,1004.81
2018-03-16T03:44:03.959Z,1004.83
2018-03-16T03:45:12.788Z,1004.79
2018-03-16T03:46:21.616Z,1004.79
2018-03-16T03:47:30.442Z,1004.77
2018-03-16T03:48:39.269Z,1004.78
2018-03-16T03:49:48.404Z,1004.79
2018-03-16T03:50:57.229Z,1004.83
2018-03-16T03:52:06.059Z,1004.81
2018-03-16T03:53:14.889Z,1004.75
2018-03-16T03:54:23.714Z,1004.83
2018-03-16T03:55:32.542Z,1004.82
2018-03-16T03:56:41.372Z,1004.83
2018-03-16T03:57:50.198Z,1004.84
2018-03-16T03:58:59.305Z,1004.85
2018-03-16T04:00:08.407Z,1004.83
2018-03-16T04:01:17.286Z,1004.81
2018-03-16T04:02:26.113Z,1004.81
2018-03-16T04:03:34.938Z,1004.84
2018-03-16T04:04:44.043Z,1004.8
2018-03-16T04:05:52.887Z,1004.89
2018-03-16T04:07:02.002Z,1004.91
2018-03-16T04:08:10.839Z,1004.84
2018-03-16T04:09:19.658Z,1004.85
2018-03-16T04:10:28.485Z,1004.9
2018-03-16T04:11:37.312Z,1004.85
2018-03-16T04:12:46.288Z,1004.9
2018-03-16T04:13:55.116Z,1004.9
2018-03-16T04:15:03.944Z,1004.93
2018-03-16T04:16:12.771Z,1004.92
2018-03-16T04:17:21.599Z,1004.89
2018-03-16T04:18:30.577Z,1004.92
2018-03-16T04:19:39.403Z,1004.93
2018-03-16T04:20:48.233Z,1004.94
2018-03-16T04:21:57.060Z,1005.03
2018-03-16T04:23:06.164Z,1004.91
2018-03-16T04:24:15.395Z,1004.95
2018-03-16T04:25:24.234Z,1005.01
2018-03-16T04:26:33.335Z,1005
2018-03-16T04:27:42.439Z,1004.98
2018-03-16T04:28:51.268Z,1004.97
2018-03-16T04:30:00.098Z,1005.02
2018-03-16T04:31:08.922Z,1005.07
2018-03-16T04:32:17.750Z,1005.02
2018-03-16T04:33:26.580Z,1004.95
2018-03-16T04:34:35.407Z,1005.08
2018-03-16T04:35:44.285Z,1005.05
2018-03-16T04:36:53.388Z,1005.05
2018-03-16T04:38:02.216Z,1005.06
2018-03-16T04:39:11.043Z,1005.07
2018-03-16T04:40:19.871Z,1005.08
2018-03-16T04:41:28.948Z,1005.02
2018-03-16T04:42:37.774Z,1005.12
2018-03-16T04:43:46.603Z,1004.99
2018-03-16T04:44:55.428Z,1005.05
2018-03-16T04:46:04.256Z,1005.12
2018-03-16T04:47:13.234Z,1005.05
2018-03-16T04:48:22.061Z,1005.07
2018-03-16T04:49:30.886Z,1005.08
2018-03-16T04:50:39.714Z,1005.02
2018-03-16T04:51:48.550Z,1005.03
2018-03-16T04:52:57.418Z,1005.05
2018-03-16T04:54:06.519Z,1005.12
2018-03-16T04:55:15.347Z,1005.03
2018-03-16T04:56:24.176Z,1005.03
2018-03-16T04:57:33.003Z,1005.07
2018-03-16T04:58:41.981Z,1005.06
2018-03-16T04:59:50.809Z,1004.95
2018-03-16T05:00:59.913Z,1004.98
2018-03-16T05:02:08.741Z,1005.02
2018-03-16T05:03:17.851Z,1005.02
2018-03-16T05:04:26.821Z,1005.04
2018-03-16T05:05:35.649Z,1005.14
2018-03-16T05:06:44.475Z,1005.06
2018-03-16T05:07:53.302Z,1005.18
2018-03-16T05:09:02.408Z,1005.13
2018-03-16T05:10:11.399Z,1005.09
2018-03-16T05:11:20.217Z,1005.12
2018-03-16T05:12:29.052Z,1005.19
2018-03-16T05:13:37.877Z,1005.17
2018-03-16T05:14:46.705Z,1005.21
2018-03-16T05:15:56.210Z,1005.28
2018-03-16T05:17:05.037Z,1005.25
2018-03-16T05:18:13.900Z,1005.27
2018-03-16T05:19:23.013Z,1005.23
2018-03-16T05:20:31.837Z,1005.22
2018-03-16T05:21:40.716Z,1005.27
2018-03-16T05:22:49.549Z,1005.28
2018-03-16T05:23:58.372Z,1005.27
2018-03-16T05:25:07.201Z,1005.21
2018-03-16T05:26:16.302Z,1005.2
2018-03-16T05:27:25.280Z,1005.29
2018-03-16T05:28:34.108Z,1005.28
2018-03-16T05:29:42.936Z,1005.29
2018-03-16T05:30:51.763Z,1005.31
2018-03-16T05:32:00.590Z,1005.34
2018-03-16T05:33:09.418Z,1005.24
2018-03-16T05:34:18.524Z,1005.31
2018-03-16T05:35:27.351Z,1005.33
2018-03-16T05:36:36.456Z,1005.37
2018-03-16T05:37:45.283Z,1005.4
2018-03-16T05:38:54.110Z,1005.37
2018-03-16T05:40:02.939Z,1005.41
2018-03-16T05:41:11.766Z,1005.5
2018-03-16T05:42:20.594Z,1005.43
2018-03-16T05:43:29.421Z,1005.41
2018-03-16T05:44:38.249Z,1005.38
2018-03-16T05:45:47.076Z,1005.37
2018-03-16T05:46:55.902Z,1005.4
2018-03-16T05:48:04.729Z,1005.47
2018-03-16T05:49:13.558Z,1005.53
2018-03-16T05:50:22.683Z,1005.45
2018-03-16T05:51:31.511Z,1005.45
2018-03-16T05:52:40.339Z,1005.5
2018-03-16T05:53:49.166Z,1005.51
2018-03-16T05:54:58.084Z,1005.53
2018-03-16T05:56:07.245Z,1005.5
2018-03-16T05:57:16.074Z,1005.52
2018-03-16T05:58:24.900Z,1005.55
2018-03-16T05:59:33.728Z,1005.59
2018-03-16T06:00:42.576Z,1005.59
2018-03-16T06:01:51.833Z,1005.57
2018-03-16T06:03:00.664Z,1005.64
2018-03-16T06:04:09.486Z,1005.59
2018-03-16T06:05:18.316Z,1005.6
2018-03-16T06:06:27.145Z,1005.68
2018-03-16T06:07:36.023Z,1005.69
2018-03-16T06:08:44.856Z,1005.67
2018-03-16T06:09:53.683Z,1005.77
2018-03-16T06:11:02.518Z,1005.71
2018-03-16T06:12:11.346Z,1005.74
2018-03-16T06:13:20.322Z,1005.74
2018-03-16T06:14:29.150Z,1005.76
2018-03-16T06:15:37.976Z,1005.78
2018-03-16T06:16:46.805Z,1005.83
2018-03-16T06:17:55.631Z,1005.78
2018-03-16T06:19:04.609Z,1005.77
2018-03-16T06:20:13.437Z,1005.78
2018-03-16T06:21:22.263Z,1005.81
2018-03-16T06:22:31.089Z,1005.87
2018-03-16T06:23:39.917Z,1005.85
2018-03-16T06:24:48.796Z,1005.86
2018-03-16T06:25:57.625Z,1005.82
2018-03-16T06:27:06.731Z,1005.89
2018-03-16T06:28:15.558Z,1005.84
2018-03-16T06:29:24.384Z,1005.87
2018-03-16T06:30:33.361Z,1005.89
2018-03-16T06:31:42.187Z,1005.87
2018-03-16T06:32:51.014Z,1005.89
2018-03-16T06:34:00.121Z,1005.91
2018-03-16T06:35:08.949Z,1005.91
2018-03-16T06:36:17.776Z,1005.97
2018-03-16T06:37:26.604Z,1005.96
2018-03-16T06:38:35.714Z,1005.96
2018-03-16T06:39:44.543Z,1006.04
2018-03-16T06:40:53.372Z,1006.08
2018-03-16T06:42:02.350Z,1006.09
2018-03-16T06:43:11.179Z,1006.05
2018-03-16T06:44:20.356Z,1006.02
2018-03-16T06:45:29.184Z,1006.08
2018-03-16T06:46:38.011Z,1006.1
2018-03-16T06:47:46.888Z,1006.05
2018-03-16T06:48:55.717Z,1006.07
2018-03-16T06:50:04.545Z,1006.13
2018-03-16T06:51:13.653Z,1006.11
2018-03-16T06:52:22.481Z,1006.17
2018-03-16T06:53:31.410Z,1006.18
2018-03-16T06:54:40.236Z,1006.12
2018-03-16T06:55:49.062Z,1006.09
2018-03-16T06:56:57.891Z,1006.19
2018-03-16T06:58:06.723Z,1006.22
2018-03-16T06:59:15.551Z,1006.14
2018-03-16T07:00:24.377Z,1006.31
2018-03-16T07:01:33.212Z,1006.23
2018-03-16T07:02:42.044Z,1006.24
2018-03-16T07:03:50.969Z,1006.31
2018-03-16T07:05:00.077Z,1006.25
2018-03-16T07:06:08.907Z,1006.29
2018-03-16T07:07:18.013Z,1006.29
2018-03-16T07:08:26.840Z,1006.28
2018-03-16T07:09:35.667Z,1006.27
2018-03-16T07:10:44.771Z,1006.4
2018-03-16T07:11:53.599Z,1006.39
2018-03-16T07:13:02.427Z,1006.45
2018-03-16T07:14:11.252Z,1006.4
2018-03-16T07:15:20.081Z,1006.39
2018-03-16T07:16:29.210Z,1006.41
2018-03-16T07:17:38.037Z,1006.57
2018-03-16T07:18:46.869Z,1006.44
2018-03-16T07:19:55.969Z,1006.42
2018-03-16T07:21:04.796Z,1006.5
2018-03-16T07:22:13.724Z,1006.57
2018-03-16T07:23:22.552Z,1006.54
2018-03-16T07:24:31.381Z,1006.56
2018-03-16T07:25:40.207Z,1006.51
2018-03-16T07:26:49.035Z,1006.53
2018-03-16T07:27:57.913Z,1006.53
2018-03-16T07:29:06.749Z,1006.59
2018-03-16T07:30:15.575Z,1006.7
2018-03-16T07:31:24.680Z,1006.67
2018-03-16T07:32:33.509Z,1006.71
2018-03-16T07:33:42.439Z,1006.7
2018-03-16T07:34:51.266Z,1006.72
2018-03-16T07:36:00.096Z,1006.68
2018-03-16T07:37:08.956Z,1006.72
2018-03-16T07:38:17.749Z,1006.77
2018-03-16T07:39:26.726Z,1006.77
2018-03-16T07:40:35.552Z,1006.79
2018-03-16T07:41:44.380Z,1006.82
2018-03-16T07:42:53.232Z,1006.86
2018-03-16T07:44:02.032Z,1006.88
2018-03-16T07:45:10.861Z,1006.87
2018-03-16T07:46:19.690Z,1006.87
2018-03-16T07:47:28.518Z,1006.93
2018-03-16T07:48:37.348Z,1006.98
2018-03-16T07:49:46.174Z,1006.98
2018-03-16T07:50:55.301Z,1006.96
2018-03-16T07:52:04.130Z,1006.98
2018-03-16T07:53:12.961Z,1006.99
2018-03-16T07:54:22.043Z,1006.93
2018-03-16T07:55:30.874Z,1006.92
2018-03-16T07:56:39.751Z,1006.98
2018-03-16T07:57:48.859Z,1007.05
2018-03-16T07:58:57.683Z,1007.01
2018-03-16T08:00:06.508Z,1007.02
2018-03-16T08:01:15.336Z,1007.04
2018-03-16T08:02:24.216Z,1007.03
2018-03-16T08:03:33.041Z,1007.05
2018-03-16T08:04:41.869Z,1007
2018-03-16T08:05:50.696Z,1007.1
2018-03-16T08:06:59.522Z,1007.08
2018-03-16T08:08:08.451Z,1007.15
2018-03-16T08:09:17.278Z,1007.16
2018-03-16T08:10:26.105Z,1007.17
2018-03-16T08:11:34.931Z,1007.18
2018-03-16T08:12:43.758Z,1007.18
2018-03-16T08:13:52.642Z,1007.16
2018-03-16T08:15:01.741Z,1007.27
2018-03-16T08:16:10.569Z,1007.14
2018-03-16T08:17:19.670Z,1007.16
2018-03-16T08:18:28.500Z,1007.23
2018-03-16T08:19:37.580Z,1007.23
2018-03-16T08:20:46.408Z,1007.32
2018-03-16T08:21:55.238Z,1007.22
2018-03-16T08:23:04.066Z,1007.21
2018-03-16T08:24:12.893Z,1007.12
2018-03-16T08:25:22.375Z,1007.31
2018-03-16T08:26:31.477Z,1007.33
2018-03-16T08:27:40.304Z,1007.24
2018-03-16T08:28:49.133Z,1007.29
2018-03-16T08:29:57.960Z,1007.3
2018-03-16T08:31:07.118Z,1007.4
2018-03-16T08:32:15.945Z,1007.37
2018-03-16T08:33:24.773Z,1007.4
2018-03-16T08:34:33.600Z,1007.36
2018-03-16T08:35:42.428Z,1007.35
2018-03-16T08:36:51.305Z,1007.38
2018-03-16T08:38:00.136Z,1007.48
2018-03-16T08:39:08.986Z,1007.41
2018-03-16T08:40:17.790Z,1007.42
2018-03-16T08:41:26.619Z,1007.48
2018-03-16T08:42:35.550Z,1007.39
2018-03-16T08:43:44.378Z,1007.4
2018-03-16T08:44:53.203Z,1007.5
2018-03-16T08:46:02.106Z,1007.53
2018-03-16T08:47:10.865Z,1007.54
2018-03-16T08:48:20.271Z,1007.56
2018-03-16T08:49:29.100Z,1007.53
2018-03-16T08:50:37.928Z,1007.51
2018-03-16T08:51:46.759Z,1007.58
2018-03-16T08:52:55.594Z,1007.59
2018-03-16T08:54:04.514Z,1007.62
2018-03-16T08:55:13.344Z,1007.57
2018-03-16T08:56:22.174Z,1007.58
2018-03-16T08:57:31.002Z,1007.62
2018-03-16T08:58:39.828Z,1007.6
2018-03-16T08:59:48.678Z,1007.58
2018-03-16T09:00:57.484Z,1007.57
2018-03-16T09:02:06.310Z,1007.67
2018-03-16T09:03:15.139Z,1007.61
2018-03-16T09:04:23.965Z,1007.59
2018-03-16T09:05:32.946Z,1007.63
2018-03-16T09:06:41.775Z,1007.67
2018-03-16T09:07:50.600Z,1007.64
2018-03-16T09:08:59.426Z,1007.66
2018-03-16T09:10:08.253Z,1007.69
2018-03-16T09:11:17.232Z,1007.63
2018-03-16T09:12:26.070Z,1007.66
2018-03-16T09:13:35.245Z,1007.65
2018-03-16T09:14:44.071Z,1007.7
2018-03-16T09:15:52.897Z,1007.7
2018-03-16T09:17:02.427Z,1007.74
2018-03-16T09:18:11.309Z,1007.69
2018-03-16T09:19:20.084Z,1007.75
2018-03-16T09:20:28.911Z,1007.74
2018-03-16T09:21:37.738Z,1007.76
2018-03-16T09:22:46.566Z,1007.7
2018-03-16T09:23:55.394Z,1007.68
2018-03-16T09:25:04.221Z,1007.76
2018-03-16T09:26:13.052Z,1007.74
2018-03-16T09:27:21.881Z,1007.75
2018-03-16T09:28:30.993Z,1007.68
2018-03-16T09:29:40.100Z,1007.76
2018-03-16T09:30:49.207Z,1007.76
2018-03-16T09:31:58.310Z,1007.79
2018-03-16T09:33:07.137Z,1007.81
2018-03-16T09:34:16.117Z,1007.85
2018-03-16T09:35:25.012Z,1007.73
2018-03-16T09:36:33.773Z,1007.76
2018-03-16T09:37:42.602Z,1007.8
2018-03-16T09:38:51.432Z,1007.75
2018-03-16T09:40:00.734Z,1007.78
2018-03-16T09:41:09.561Z,1007.82
2018-03-16T09:42:18.399Z,1007.81
2018-03-16T09:43:27.246Z,1007.84
2018-03-16T09:44:36.051Z,1007.85
2018-03-16T09:45:45.028Z,1007.92
2018-03-16T09:46:54.134Z,1007.88
2018-03-16T09:48:02.962Z,1007.96
2018-03-16T09:49:11.791Z,1007.98
2018-03-16T09:50:20.618Z,1007.98
2018-03-16T09:51:29.747Z,1008.01
2018-03-16T09:52:38.575Z,1007.98
2018-03-16T09:53:47.403Z,1007.97
2018-03-16T09:54:56.234Z,1008.03
2018-03-16T09:56:05.064Z,1007.98
2018-03-16T09:57:13.942Z,1008.02
2018-03-16T09:58:22.774Z,1008
2018-03-16T09:59:31.600Z,1008.03
2018-03-16T10:00:40.426Z,1008.08
2018-03-16T10:01:49.256Z,1008.09
2018-03-16T10:02:58.726Z,1008.09
2018-03-16T10:04:07.554Z,1008.16
2018-03-16T10:05:16.382Z,1007.99
2018-03-16T10:06:25.210Z,1008.07
2018-03-16T10:07:34.039Z,1008.12
2018-03-16T10:08:43.292Z,1008.07
2018-03-16T10:09:52.120Z,1008.09
2018-03-16T10:11:00.951Z,1008.12
2018-03-16T10:12:09.775Z,1008.21
2018-03-16T10:13:18.607Z,1008.14
2018-03-16T10:14:27.485Z,1008.18
2018-03-16T10:15:36.311Z,1008.19
2018-03-16T10:16:45.140Z,1008.16
2018-03-16T10:17:53.969Z,1008.22
2018-03-16T10:19:03.074Z,1008.25
2018-03-16T10:20:12.200Z,1008.21
2018-03-16T10:21:21.029Z,1008.23
2018-03-16T10:22:29.856Z,1008.28
2018-03-16T10:23:38.690Z,1008.26
2018-03-16T10:24:47.516Z,1008.34
2018-03-16T10:25:56.885Z,1008.31
2018-03-16T10:27:05.711Z,1008.22
2018-03-16T10:28:14.811Z,1008.35
2018-03-16T10:29:23.640Z,1008.23
2018-03-16T10:30:32.744Z,1008.29
2018-03-16T10:31:41.622Z,1008.31
2018-03-16T10:32:50.451Z,1008.29
2018-03-16T10:33:59.562Z,1008.35
2018-03-16T10:35:08.396Z,1008.29
2018-03-16T10:36:17.222Z,1008.31
2018-03-16T10:37:26.351Z,1008.4
2018-03-16T10:38:35.178Z,1008.36
2018-03-16T10:39:44.006Z,1008.44
2018-03-16T10:40:52.833Z,1008.39
2018-03-16T10:42:01.660Z,1008.41
2018-03-16T10:43:10.487Z,1008.38
2018-03-16T10:44:19.602Z,1008.4
2018-03-16T10:45:28.426Z,1008.36
2018-03-16T10:46:37.253Z,1008.41
2018-03-16T10:47:46.079Z,1008.44
2018-03-16T10:48:55.059Z,1008.47
2018-03-16T10:50:04.115Z,1008.39
2018-03-16T10:51:12.947Z,1008.41
2018-03-16T10:52:21.776Z,1008.4
2018-03-16T10:53:30.602Z,1008.45
2018-03-16T10:54:39.431Z,1008.48
2018-03-16T10:55:48.261Z,1008.42
2018-03-16T10:56:57.140Z,1008.47
2018-03-16T10:58:05.915Z,1008.51
2018-03-16T10:59:14.744Z,1008.47
2018-03-16T11:00:23.722Z,1008.51
2018-03-16T11:01:32.831Z,1008.64
2018-03-16T11:02:41.669Z,1008.53
2018-03-16T11:03:50.511Z,1008.55
2018-03-16T11:04:59.345Z,1008.5
2018-03-16T11:06:08.282Z,1008.54
2018-03-16T11:07:17.122Z,1008.55
2018-03-16T11:08:25.965Z,1008.61
2018-03-16T11:09:35.086Z,1008.58
2018-03-16T11:10:43.926Z,1008.58
2018-03-16T11:11:52.814Z,1008.62
2018-03-16T11:13:01.652Z,1008.55
2018-03-16T11:14:10.489Z,1008.63
2018-03-16T11:15:19.330Z,1008.56
2018-03-16T11:16:28.221Z,1008.57
2018-03-16T11:17:37.157Z,1008.61
2018-03-16T11:18:45.992Z,1008.59
2018-03-16T11:19:54.828Z,1008.63
2018-03-16T11:21:03.668Z,1008.58
2018-03-16T11:22:12.511Z,1008.68
2018-03-16T11:23:21.445Z,1008.59
2018-03-16T11:24:30.285Z,1008.64
2018-03-16T11:25:39.131Z,1008.59
2018-03-16T11:26:47.969Z,1008.68
2018-03-16T11:27:56.807Z,1008.62
2018-03-16T11:29:05.793Z,1008.69
2018-03-16T11:30:14.631Z,1008.69
2018-03-16T11:31:23.467Z,1008.64
2018-03-16T11:32:32.302Z,1008.69
2018-03-16T11:33:41.141Z,1008.74
2018-03-16T11:34:50.127Z,1008.67
2018-03-16T11:35:59.247Z,1008.7
2018-03-16T11:37:08.084Z,1008.77
2018-03-16T11:38:16.917Z,1008.81
2018-03-16T11:39:25.778Z,1008.75
2018-03-16T11:40:35.186Z,1008.77
2018-03-16T11:41:44.029Z,1008.84
2018-03-16T11:42:52.860Z,1008.76
2018-03-16T11:44:01.745Z,1008.8
2018-03-16T11:45:10.516Z,1008.79
2018-03-16T11:46:19.443Z,1008.78
2018-03-16T11:47:28.555Z,1008.79
2018-03-16T11:48:37.382Z,1008.8
2018-03-16T11:49:46.490Z,1008.81
2018-03-16T11:50:55.325Z,1008.81
2018-03-16T11:52:04.522Z,1008.86
2018-03-16T11:53:13.364Z,1008.82
2018-03-16T11:54:22.191Z,1008.82
2018-03-16T11:55:31.020Z,1008.75
2018-03-16T11:56:39.849Z,1008.79
2018-03-16T11:57:49.080Z,1008.88
2018-03-16T11:58:57.918Z,1008.87
2018-03-16T12:00:06.744Z,1008.86
2018-03-16T12:01:15.575Z,1008.85
2018-03-16T12:02:24.402Z,1008.88
2018-03-16T12:03:33.228Z,1008.9
2018-03-16T12:04:42.070Z,1008.89
2018-03-16T12:05:51.383Z,1008.87
2018-03-16T12:07:00.208Z,1008.83
2018-03-16T12:08:09.046Z,1008.79
2018-03-16T12:09:17.977Z,1008.85
2018-03-16T12:10:26.837Z,1008.81
2018-03-16T12:11:35.669Z,1008.81
2018-03-16T12:12:44.498Z,1008.88
2018-03-16T12:13:53.325Z,1008.91
2018-03-16T12:15:02.304Z,1008.95
2018-03-16T12:16:11.416Z,1008.89
2018-03-16T12:17:20.245Z,1008.94
2018-03-16T12:18:29.094Z,1008.99
2018-03-16T12:19:38.204Z,1008.97
2018-03-16T12:20:47.335Z,1008.93
2018-03-16T12:21:56.162Z,1008.9
2018-03-16T12:23:04.994Z,1008.86
2018-03-16T12:24:13.821Z,1008.86
2018-03-16T12:25:22.684Z,1008.91
2018-03-16T12:26:31.557Z,1008.95
2018-03-16T12:27:40.385Z,1008.97
2018-03-16T12:28:50.077Z,1008.91
2018-03-16T12:29:58.053Z,1009
2018-03-16T12:31:06.962Z,1008.98
2018-03-16T12:32:16.441Z,1008.87
2018-03-16T12:33:25.269Z,1008.87
2018-03-16T12:34:34.097Z,1008.95
2018-03-16T12:35:42.954Z,1008.94
2018-03-16T12:36:52.058Z,1008.84
2018-03-16T12:38:00.938Z,1008.99
2018-03-16T12:39:10.052Z,1008.9
2018-03-16T12:40:18.880Z,1008.91
2018-03-16T12:41:27.981Z,1008.95
2018-03-16T12:42:36.811Z,1009.02
2018-03-16T12:43:46.040Z,1009.04
2018-03-16T12:44:54.869Z,1008.96
2018-03-16T12:46:03.701Z,1008.9
2018-03-16T12:47:12.528Z,1008.93
2018-03-16T12:48:21.360Z,1008.96
2018-03-16T12:49:30.239Z,1009.02
2018-03-16T12:50:39.069Z,1009
2018-03-16T12:51:47.900Z,1008.98
2018-03-16T12:52:56.729Z,1009
2018-03-16T12:54:05.584Z,1009.02
2018-03-16T12:55:14.617Z,1009.04
2018-03-16T12:56:23.445Z,1009.05
2018-03-16T12:57:32.274Z,1009.05
2018-03-16T12:58:41.379Z,1009.08
2018-03-16T12:59:50.212Z,1009.06
2018-03-16T13:00:59.611Z,1009.02
2018-03-16T13:02:08.439Z,1009
2018-03-16T13:03:17.268Z,1008.97
2018-03-16T13:04:26.394Z,1009.13
2018-03-16T13:05:35.222Z,1009.1
2018-03-16T13:06:44.098Z,1009.09
2018-03-16T13:07:52.990Z,1009.18
2018-03-16T13:09:01.872Z,1009.13
2018-03-16T13:10:10.755Z,1009.2
2018-03-16T13:11:19.656Z,1009.21
2018-03-16T13:12:28.677Z,1009.22
2018-03-16T13:13:37.564Z,1009.2
2018-03-16T13:14:46.452Z,1009.23
2018-03-16T13:15:55.338Z,1009.36
2018-03-16T13:17:04.225Z,1009.24
2018-03-16T13:18:13.411Z,1009.24
2018-03-16T13:19:22.314Z,1009.31
2018-03-16T13:20:31.185Z,1009.3
2018-03-16T13:21:40.070Z,1009.24
2018-03-16T13:22:48.954Z,1009.26
2018-03-16T13:23:58.139Z,1009.31
2018-03-16T13:25:07.305Z,1009.32
2018-03-16T13:26:16.474Z,1009.24
2018-03-16T13:27:25.360Z,1009.3
2018-03-16T13:28:34.238Z,1009.3
2018-03-16T13:29:43.247Z,1009.33
2018-03-16T13:30:52.103Z,1009.3
2018-03-16T13:32:00.959Z,1009.38
2018-03-16T13:33:09.822Z,1009.36
2018-03-16T13:34:18.673Z,1009.35
2018-03-16T13:35:27.668Z,1009.29
2018-03-16T13:36:36.513Z,1009.38
2018-03-16T13:37:45.356Z,1009.31
2018-03-16T13:38:54.211Z,1009.38
2018-03-16T13:40:03.042Z,1009.5
2018-03-16T13:41:12.044Z,1009.4
2018-03-16T13:42:20.890Z,1009.39
2018-03-16T13:43:29.730Z,1009.4
2018-03-16T13:44:38.589Z,1009.44
2018-03-16T13:45:47.443Z,1009.45
2018-03-16T13:46:56.292Z,1009.51
2018-03-16T13:48:05.128Z,1009.49
2018-03-16T13:49:13.966Z,1009.45
2018-03-16T13:50:23.072Z,1009.41
2018-03-16T13:51:32.117Z,1009.55
2018-03-16T13:52:41.077Z,1009.53
2018-03-16T13:53:49.928Z,1009.51
2018-03-16T13:54:58.771Z,1009.5
2018-03-16T13:56:07.609Z,1009.44